sensor_id;sensor_type;location;lat;lon;timestamp;P1;durP1;ratioP1;P2;durP2;ratioP2
10920;SDS011;5513;50.580;8.818;2022-09-06T00:00:28;4.17;;;2.40;;
10920;SDS011;5513;50.580;8.818;2022-09-06T00:02:57;4.00;;;1.70;;
10920;SDS011;5513;50.580;8.818;2022-09-06T00:05:27;2.20;;;2.00;;
10920;SDS011;5513;50.580;8.818;2022-09-06T00:07:57;3.77;;;2.30;;
10920;SDS011;5513;50.580;8.818;2022-09-06T00:10:25;2.97;;;1.83;;
10920;SDS011;5513;50.580;8.818;2022-09-06T00:12:54;3.80;;;2.03;;
10920;SDS011;5513;50.580;8.818;2022-09-06T00:15:26;6.45;;;2.30;;
10920;SDS011;5513;50.580;8.818;2022-09-06T00:17:56;3.53;;;1.90;;
10920;SDS011;5513;50.580;8.818;2022-09-06T00:20:28;4.83;;;2.30;;
10920;SDS011;5513;50.580;8.818;2022-09-06T00:22:58;2.97;;;1.93;;
10920;SDS011;5513;50.580;8.818;2022-09-06T00:25:28;4.75;;;1.70;;
10920;SDS011;5513;50.580;8.818;2022-09-06T00:28:00;5.20;;;2.15;;
10920;SDS011;5513;50.580;8.818;2022-09-06T00:30:30;2.53;;;1.97;;
10920;SDS011;5513;50.580;8.818;2022-09-06T00:32:59;3.03;;;1.90;;
10920;SDS011;5513;50.580;8.818;2022-09-06T00:35:29;3.70;;;2.10;;
10920;SDS011;5513;50.580;8.818;2022-09-06T00:37:58;2.83;;;1.70;;
10920;SDS011;5513;50.580;8.818;2022-09-06T00:40:28;2.83;;;1.80;;
10920;SDS011;5513;50.580;8.818;2022-09-06T00:43:00;3.23;;;2.30;;
10920;SDS011;5513;50.580;8.818;2022-09-06T00:45:30;4.73;;;2.30;;
10920;SDS011;5513;50.580;8.818;2022-09-06T00:47:59;2.40;;;1.97;;
10920;SDS011;5513;50.580;8.818;2022-09-06T00:50:30;3.30;;;1.87;;
10920;SDS011;5513;50.580;8.818;2022-09-06T00:52:58;2.57;;;2.07;;
10920;SDS011;5513;50.580;8.818;2022-09-06T00:55:27;2.70;;;2.10;;
10920;SDS011;5513;50.580;8.818;2022-09-06T00:57:57;4.17;;;2.00;;
10920;SDS011;5513;50.580;8.818;2022-09-06T01:00:26;3.60;;;1.90;;
10920;SDS011;5513;50.580;8.818;2022-09-06T01:02:54;2.50;;;2.07;;
10920;SDS011;5513;50.580;8.818;2022-09-06T01:05:22;2.80;;;2.13;;
10920;SDS011;5513;50.580;8.818;2022-09-06T01:08:04;2.00;;;1.77;;
10920;SDS011;5513;50.580;8.818;2022-09-06T01:10:48;5.13;;;1.97;;
10920;SDS011;5513;50.580;8.818;2022-09-06T01:13:29;4.07;;;2.10;;
10920;SDS011;5513;50.580;8.818;2022-09-06T01:16:09;2.90;;;1.80;;
10920;SDS011;5513;50.580;8.818;2022-09-06T01:18:44;3.77;;;2.10;;
10920;SDS011;5513;50.580;8.818;2022-09-06T01:21:31;2.20;;;1.97;;
10920;SDS011;5513;50.580;8.818;2022-09-06T01:30:24;2.83;;;1.85;;
10920;SDS011;5513;50.580;8.818;2022-09-06T01:32:54;4.33;;;1.80;;
10920;SDS011;5513;50.580;8.818;2022-09-06T01:35:26;4.23;;;2.37;;
10920;SDS011;5513;50.580;8.818;2022-09-06T01:38:00;3.17;;;2.00;;
10920;SDS011;5513;50.580;8.818;2022-09-06T01:40:30;2.83;;;2.20;;
10920;SDS011;5513;50.580;8.818;2022-09-06T01:43:07;2.97;;;2.10;;
10920;SDS011;5513;50.580;8.818;2022-09-06T01:45:40;7.33;;;2.43;;
10920;SDS011;5513;50.580;8.818;2022-09-06T01:48:19;5.03;;;2.20;;
10920;SDS011;5513;50.580;8.818;2022-09-06T01:50:57;3.13;;;2.20;;
10920;SDS011;5513;50.580;8.818;2022-09-06T01:53:45;4.93;;;2.00;;
10920;SDS011;5513;50.580;8.818;2022-09-06T01:56:35;2.20;;;2.00;;
10920;SDS011;5513;50.580;8.818;2022-09-06T02:02:08;5.07;;;2.70;;
10920;SDS011;5513;50.580;8.818;2022-09-06T02:04:42;3.60;;;2.30;;
10920;SDS011;5513;50.580;8.818;2022-09-06T02:07:14;4.03;;;2.20;;
10920;SDS011;5513;50.580;8.818;2022-09-06T02:09:48;3.70;;;2.10;;
10920;SDS011;5513;50.580;8.818;2022-09-06T02:12:21;5.40;;;2.70;;
10920;SDS011;5513;50.580;8.818;2022-09-06T02:14:55;5.10;;;2.30;;
10920;SDS011;5513;50.580;8.818;2022-09-06T02:17:29;4.67;;;2.60;;
10920;SDS011;5513;50.580;8.818;2022-09-06T02:20:00;3.53;;;2.30;;
10920;SDS011;5513;50.580;8.818;2022-09-06T02:22:34;6.27;;;2.57;;
10920;SDS011;5513;50.580;8.818;2022-09-06T02:25:07;3.60;;;2.20;;
10920;SDS011;5513;50.580;8.818;2022-09-06T02:27:38;6.73;;;2.20;;
10920;SDS011;5513;50.580;8.818;2022-09-06T02:30:09;2.60;;;2.30;;
10920;SDS011;5513;50.580;8.818;2022-09-06T02:32:39;3.47;;;2.37;;
10920;SDS011;5513;50.580;8.818;2022-09-06T02:35:11;4.80;;;2.20;;
10920;SDS011;5513;50.580;8.818;2022-09-06T02:37:43;3.53;;;2.27;;
10920;SDS011;5513;50.580;8.818;2022-09-06T02:40:13;3.37;;;2.40;;
10920;SDS011;5513;50.580;8.818;2022-09-06T02:42:42;6.17;;;2.30;;
10920;SDS011;5513;50.580;8.818;2022-09-06T02:45:12;4.83;;;2.23;;
10920;SDS011;5513;50.580;8.818;2022-09-06T02:47:40;2.90;;;2.20;;
10920;SDS011;5513;50.580;8.818;2022-09-06T02:50:10;5.47;;;2.23;;
10920;SDS011;5513;50.580;8.818;2022-09-06T02:52:38;2.67;;;2.40;;
10920;SDS011;5513;50.580;8.818;2022-09-06T02:55:08;3.60;;;2.60;;
10920;SDS011;5513;50.580;8.818;2022-09-06T02:57:36;4.57;;;2.50;;
10920;SDS011;5513;50.580;8.818;2022-09-06T03:00:05;3.93;;;2.63;;
10920;SDS011;5513;50.580;8.818;2022-09-06T03:02:35;2.63;;;2.43;;
10920;SDS011;5513;50.580;8.818;2022-09-06T03:05:04;5.10;;;2.80;;
10920;SDS011;5513;50.580;8.818;2022-09-06T03:07:32;7.43;;;2.73;;
10920;SDS011;5513;50.580;8.818;2022-09-06T03:10:01;5.57;;;2.90;;
10920;SDS011;5513;50.580;8.818;2022-09-06T03:12:31;5.70;;;3.03;;
10920;SDS011;5513;50.580;8.818;2022-09-06T03:15:00;3.37;;;2.50;;
10920;SDS011;5513;50.580;8.818;2022-09-06T03:17:29;4.43;;;2.87;;
10920;SDS011;5513;50.580;8.818;2022-09-06T03:20:01;3.83;;;2.67;;
10920;SDS011;5513;50.580;8.818;2022-09-06T03:22:29;3.30;;;3.00;;
10920;SDS011;5513;50.580;8.818;2022-09-06T03:25:03;5.17;;;2.80;;
10920;SDS011;5513;50.580;8.818;2022-09-06T03:27:33;3.87;;;2.83;;
10920;SDS011;5513;50.580;8.818;2022-09-06T03:30:02;4.60;;;2.97;;
10920;SDS011;5513;50.580;8.818;2022-09-06T03:32:31;7.10;;;2.67;;
10920;SDS011;5513;50.580;8.818;2022-09-06T03:35:01;6.07;;;2.60;;
10920;SDS011;5513;50.580;8.818;2022-09-06T03:37:32;3.50;;;2.80;;
10920;SDS011;5513;50.580;8.818;2022-09-06T03:40:01;6.63;;;2.83;;
10920;SDS011;5513;50.580;8.818;2022-09-06T03:42:30;6.43;;;2.70;;
10920;SDS011;5513;50.580;8.818;2022-09-06T03:44:59;8.00;;;3.03;;
10920;SDS011;5513;50.580;8.818;2022-09-06T03:47:28;5.23;;;3.10;;
10920;SDS011;5513;50.580;8.818;2022-09-06T03:49:56;3.23;;;2.57;;
10920;SDS011;5513;50.580;8.818;2022-09-06T03:52:27;4.80;;;2.73;;
10920;SDS011;5513;50.580;8.818;2022-09-06T03:55:03;4.30;;;2.80;;
10920;SDS011;5513;50.580;8.818;2022-09-06T03:57:37;4.93;;;3.00;;
10920;SDS011;5513;50.580;8.818;2022-09-06T04:00:08;3.17;;;2.47;;
10920;SDS011;5513;50.580;8.818;2022-09-06T04:02:37;4.13;;;2.60;;
10920;SDS011;5513;50.580;8.818;2022-09-06T04:05:06;3.37;;;2.60;;
10920;SDS011;5513;50.580;8.818;2022-09-06T04:07:37;4.50;;;2.93;;
10920;SDS011;5513;50.580;8.818;2022-09-06T04:10:06;3.00;;;2.70;;
10920;SDS011;5513;50.580;8.818;2022-09-06T04:12:35;3.27;;;2.90;;
10920;SDS011;5513;50.580;8.818;2022-09-06T04:15:04;7.30;;;2.63;;
10920;SDS011;5513;50.580;8.818;2022-09-06T04:17:34;5.50;;;2.93;;
10920;SDS011;5513;50.580;8.818;2022-09-06T04:20:03;6.83;;;2.77;;
10920;SDS011;5513;50.580;8.818;2022-09-06T04:22:32;2.43;;;2.23;;
10920;SDS011;5513;50.580;8.818;2022-09-06T04:25:05;4.63;;;2.70;;
10920;SDS011;5513;50.580;8.818;2022-09-06T04:27:34;5.30;;;2.80;;
10920;SDS011;5513;50.580;8.818;2022-09-06T04:30:05;4.43;;;2.73;;
10920;SDS011;5513;50.580;8.818;2022-09-06T04:32:34;5.43;;;2.97;;
10920;SDS011;5513;50.580;8.818;2022-09-06T04:35:03;3.17;;;2.70;;
10920;SDS011;5513;50.580;8.818;2022-09-06T04:37:33;3.83;;;2.70;;
10920;SDS011;5513;50.580;8.818;2022-09-06T04:40:01;3.83;;;2.80;;
10920;SDS011;5513;50.580;8.818;2022-09-06T04:42:32;4.37;;;2.93;;
10920;SDS011;5513;50.580;8.818;2022-09-06T04:45:01;4.67;;;2.80;;
10920;SDS011;5513;50.580;8.818;2022-09-06T04:47:29;6.90;;;3.03;;
10920;SDS011;5513;50.580;8.818;2022-09-06T04:49:57;6.13;;;3.07;;
10920;SDS011;5513;50.580;8.818;2022-09-06T04:52:26;3.87;;;2.87;;
10920;SDS011;5513;50.580;8.818;2022-09-06T04:54:55;6.60;;;2.60;;
10920;SDS011;5513;50.580;8.818;2022-09-06T04:57:25;3.27;;;2.70;;
10920;SDS011;5513;50.580;8.818;2022-09-06T05:00:00;4.00;;;2.77;;
10920;SDS011;5513;50.580;8.818;2022-09-06T05:02:29;5.33;;;3.40;;
10920;SDS011;5513;50.580;8.818;2022-09-06T05:04:59;5.13;;;2.97;;
10920;SDS011;5513;50.580;8.818;2022-09-06T05:07:27;5.00;;;2.80;;
10920;SDS011;5513;50.580;8.818;2022-09-06T05:09:56;4.90;;;3.00;;
10920;SDS011;5513;50.580;8.818;2022-09-06T05:12:24;3.83;;;2.80;;
10920;SDS011;5513;50.580;8.818;2022-09-06T05:14:52;5.07;;;2.83;;
10920;SDS011;5513;50.580;8.818;2022-09-06T05:17:22;4.73;;;2.60;;
10920;SDS011;5513;50.580;8.818;2022-09-06T05:19:51;5.33;;;2.70;;
10920;SDS011;5513;50.580;8.818;2022-09-06T05:22:20;6.37;;;2.83;;
10920;SDS011;5513;50.580;8.818;2022-09-06T05:24:48;5.53;;;2.80;;
10920;SDS011;5513;50.580;8.818;2022-09-06T05:27:17;5.20;;;3.03;;
10920;SDS011;5513;50.580;8.818;2022-09-06T05:29:46;4.37;;;2.97;;
10920;SDS011;5513;50.580;8.818;2022-09-06T05:32:14;5.43;;;3.00;;
10920;SDS011;5513;50.580;8.818;2022-09-06T05:34:44;4.40;;;3.20;;
10920;SDS011;5513;50.580;8.818;2022-09-06T05:37:13;4.00;;;2.80;;
10920;SDS011;5513;50.580;8.818;2022-09-06T05:39:44;7.27;;;3.00;;
10920;SDS011;5513;50.580;8.818;2022-09-06T05:42:13;4.50;;;2.70;;
10920;SDS011;5513;50.580;8.818;2022-09-06T05:44:45;5.93;;;3.07;;
10920;SDS011;5513;50.580;8.818;2022-09-06T05:47:13;3.57;;;2.60;;
10920;SDS011;5513;50.580;8.818;2022-09-06T05:49:41;4.57;;;2.77;;
10920;SDS011;5513;50.580;8.818;2022-09-06T05:52:13;3.80;;;2.60;;
10920;SDS011;5513;50.580;8.818;2022-09-06T05:54:42;5.27;;;2.57;;
10920;SDS011;5513;50.580;8.818;2022-09-06T05:57:10;3.80;;;2.30;;
10920;SDS011;5513;50.580;8.818;2022-09-06T05:59:40;7.30;;;2.90;;
10920;SDS011;5513;50.580;8.818;2022-09-06T06:02:09;4.77;;;2.90;;
10920;SDS011;5513;50.580;8.818;2022-09-06T06:04:38;5.03;;;2.63;;
10920;SDS011;5513;50.580;8.818;2022-09-06T06:07:07;6.93;;;2.70;;
10920;SDS011;5513;50.580;8.818;2022-09-06T06:09:36;2.87;;;2.57;;
10920;SDS011;5513;50.580;8.818;2022-09-06T06:12:05;8.57;;;2.50;;
10920;SDS011;5513;50.580;8.818;2022-09-06T06:14:34;4.67;;;2.53;;
10920;SDS011;5513;50.580;8.818;2022-09-06T06:17:05;4.30;;;2.50;;
10920;SDS011;5513;50.580;8.818;2022-09-06T06:19:34;7.30;;;2.63;;
10920;SDS011;5513;50.580;8.818;2022-09-06T06:22:03;4.27;;;2.30;;
10920;SDS011;5513;50.580;8.818;2022-09-06T06:24:31;6.23;;;2.47;;
10920;SDS011;5513;50.580;8.818;2022-09-06T06:27:03;3.57;;;2.37;;
10920;SDS011;5513;50.580;8.818;2022-09-06T06:29:33;4.67;;;2.47;;
10920;SDS011;5513;50.580;8.818;2022-09-06T06:32:02;2.43;;;2.10;;
10920;SDS011;5513;50.580;8.818;2022-09-06T06:34:31;3.93;;;2.80;;
10920;SDS011;5513;50.580;8.818;2022-09-06T06:36:59;5.10;;;2.30;;
10920;SDS011;5513;50.580;8.818;2022-09-06T06:39:28;5.13;;;2.50;;
10920;SDS011;5513;50.580;8.818;2022-09-06T06:41:58;6.13;;;2.67;;
10920;SDS011;5513;50.580;8.818;2022-09-06T06:44:28;4.87;;;2.60;;
10920;SDS011;5513;50.580;8.818;2022-09-06T06:46:56;6.13;;;2.50;;
10920;SDS011;5513;50.580;8.818;2022-09-06T06:49:27;6.27;;;2.50;;
10920;SDS011;5513;50.580;8.818;2022-09-06T06:51:56;3.83;;;2.37;;
10920;SDS011;5513;50.580;8.818;2022-09-06T06:54:24;4.27;;;2.37;;
10920;SDS011;5513;50.580;8.818;2022-09-06T06:56:53;4.47;;;2.27;;
10920;SDS011;5513;50.580;8.818;2022-09-06T06:59:21;9.43;;;2.70;;
10920;SDS011;5513;50.580;8.818;2022-09-06T07:01:51;8.80;;;2.90;;
10920;SDS011;5513;50.580;8.818;2022-09-06T07:04:20;9.20;;;2.90;;
10920;SDS011;5513;50.580;8.818;2022-09-06T07:06:51;5.77;;;2.50;;
10920;SDS011;5513;50.580;8.818;2022-09-06T07:09:41;4.23;;;2.63;;
10920;SDS011;5513;50.580;8.818;2022-09-06T07:12:29;7.20;;;2.70;;
10920;SDS011;5513;50.580;8.818;2022-09-06T07:15:00;4.07;;;2.42;;
10920;SDS011;5513;50.580;8.818;2022-09-06T07:17:30;3.65;;;2.58;;
10920;SDS011;5513;50.580;8.818;2022-09-06T07:20:00;3.22;;;2.50;;
10920;SDS011;5513;50.580;8.818;2022-09-06T07:22:36;3.13;;;2.33;;
10920;SDS011;5513;50.580;8.818;2022-09-06T07:25:08;4.45;;;2.70;;
10920;SDS011;5513;50.580;8.818;2022-09-06T07:27:40;9.13;;;2.78;;
10920;SDS011;5513;50.580;8.818;2022-09-06T07:30:12;7.18;;;2.53;;
10920;SDS011;5513;50.580;8.818;2022-09-06T07:32:42;5.70;;;2.50;;
10920;SDS011;5513;50.580;8.818;2022-09-06T07:35:10;3.73;;;2.27;;
10920;SDS011;5513;50.580;8.818;2022-09-06T07:37:39;5.55;;;2.35;;
10920;SDS011;5513;50.580;8.818;2022-09-06T07:40:08;4.28;;;2.50;;
10920;SDS011;5513;50.580;8.818;2022-09-06T07:42:37;4.10;;;2.60;;
10920;SDS011;5513;50.580;8.818;2022-09-06T07:45:06;2.92;;;2.15;;
10920;SDS011;5513;50.580;8.818;2022-09-06T07:47:35;3.88;;;2.40;;
10920;SDS011;5513;50.580;8.818;2022-09-06T07:50:27;4.32;;;2.47;;
10920;SDS011;5513;50.580;8.818;2022-09-06T07:53:14;4.68;;;2.25;;
10920;SDS011;5513;50.580;8.818;2022-09-06T07:55:54;6.55;;;2.40;;
10920;SDS011;5513;50.580;8.818;2022-09-06T07:58:26;5.05;;;2.20;;
10920;SDS011;5513;50.580;8.818;2022-09-06T08:04:00;3.40;;;2.10;;
10920;SDS011;5513;50.580;8.818;2022-09-06T08:06:36;3.40;;;2.40;;
10920;SDS011;5513;50.580;8.818;2022-09-06T08:09:25;3.13;;;2.15;;
10920;SDS011;5513;50.580;8.818;2022-09-06T08:11:54;5.15;;;2.20;;
10920;SDS011;5513;50.580;8.818;2022-09-06T08:14:22;3.63;;;2.25;;
10920;SDS011;5513;50.580;8.818;2022-09-06T08:16:51;4.05;;;2.08;;
10920;SDS011;5513;50.580;8.818;2022-09-06T08:19:19;3.72;;;2.20;;
10920;SDS011;5513;50.580;8.818;2022-09-06T08:21:51;5.53;;;2.10;;
10920;SDS011;5513;50.580;8.818;2022-09-06T08:24:21;2.30;;;1.92;;
10920;SDS011;5513;50.580;8.818;2022-09-06T08:26:49;3.67;;;1.92;;
10920;SDS011;5513;50.580;8.818;2022-09-06T08:29:18;2.10;;;1.90;;
10920;SDS011;5513;50.580;8.818;2022-09-06T08:31:47;4.00;;;2.15;;
10920;SDS011;5513;50.580;8.818;2022-09-06T08:34:16;3.83;;;1.90;;
10920;SDS011;5513;50.580;8.818;2022-09-06T08:36:44;4.13;;;2.10;;
10920;SDS011;5513;50.580;8.818;2022-09-06T08:39:14;2.40;;;2.10;;
10920;SDS011;5513;50.580;8.818;2022-09-06T08:41:47;2.80;;;2.13;;
10920;SDS011;5513;50.580;8.818;2022-09-06T08:44:20;5.75;;;2.17;;
10920;SDS011;5513;50.580;8.818;2022-09-06T08:47:13;2.80;;;2.03;;
10920;SDS011;5513;50.580;8.818;2022-09-06T08:49:43;3.75;;;1.98;;
10920;SDS011;5513;50.580;8.818;2022-09-06T08:55:39;2.20;;;2.00;;
10920;SDS011;5513;50.580;8.818;2022-09-06T08:58:19;2.42;;;2.05;;
10920;SDS011;5513;50.580;8.818;2022-09-06T09:01:05;4.57;;;2.28;;
10920;SDS011;5513;50.580;8.818;2022-09-06T09:03:39;4.07;;;1.90;;
10920;SDS011;5513;50.580;8.818;2022-09-06T09:06:10;2.95;;;1.85;;
10920;SDS011;5513;50.580;8.818;2022-09-06T09:08:41;3.15;;;2.10;;
10920;SDS011;5513;50.580;8.818;2022-09-06T09:11:18;2.28;;;1.80;;
10920;SDS011;5513;50.580;8.818;2022-09-06T09:13:50;4.47;;;1.88;;
10920;SDS011;5513;50.580;8.818;2022-09-06T09:16:21;3.92;;;2.00;;
10920;SDS011;5513;50.580;8.818;2022-09-06T09:18:51;3.13;;;1.70;;
10920;SDS011;5513;50.580;8.818;2022-09-06T09:21:23;6.10;;;1.88;;
10920;SDS011;5513;50.580;8.818;2022-09-06T09:23:57;2.75;;;1.63;;
10920;SDS011;5513;50.580;8.818;2022-09-06T09:26:31;3.97;;;2.17;;
10920;SDS011;5513;50.580;8.818;2022-09-06T09:29:12;3.15;;;1.90;;
10920;SDS011;5513;50.580;8.818;2022-09-06T09:31:44;5.07;;;1.95;;
10920;SDS011;5513;50.580;8.818;2022-09-06T09:34:26;5.45;;;1.88;;
10920;SDS011;5513;50.580;8.818;2022-09-06T09:37:09;7.20;;;2.25;;
10920;SDS011;5513;50.580;8.818;2022-09-06T09:40:01;4.55;;;1.90;;
10920;SDS011;5513;50.580;8.818;2022-09-06T09:42:32;6.45;;;2.00;;
10920;SDS011;5513;50.580;8.818;2022-09-06T09:45:03;3.15;;;1.92;;
10920;SDS011;5513;50.580;8.818;2022-09-06T09:47:50;5.30;;;1.90;;
10920;SDS011;5513;50.580;8.818;2022-09-06T09:50:23;2.20;;;1.85;;
10920;SDS011;5513;50.580;8.818;2022-09-06T09:52:54;4.32;;;1.70;;
10920;SDS011;5513;50.580;8.818;2022-09-06T09:55:23;2.92;;;1.90;;
10920;SDS011;5513;50.580;8.818;2022-09-06T09:57:54;3.85;;;1.98;;
10920;SDS011;5513;50.580;8.818;2022-09-06T10:00:33;4.30;;;1.92;;
10920;SDS011;5513;50.580;8.818;2022-09-06T10:03:11;4.78;;;1.90;;
10920;SDS011;5513;50.580;8.818;2022-09-06T10:05:40;2.08;;;1.70;;
10920;SDS011;5513;50.580;8.818;2022-09-06T10:08:11;3.00;;;1.70;;
10920;SDS011;5513;50.580;8.818;2022-09-06T10:10:45;4.43;;;1.85;;
10920;SDS011;5513;50.580;8.818;2022-09-06T10:13:19;3.40;;;1.75;;
10920;SDS011;5513;50.580;8.818;2022-09-06T10:15:50;5.72;;;1.80;;
10920;SDS011;5513;50.580;8.818;2022-09-06T10:18:27;2.55;;;1.67;;
10920;SDS011;5513;50.580;8.818;2022-09-06T10:21:00;1.63;;;1.50;;
10920;SDS011;5513;50.580;8.818;2022-09-06T10:23:43;3.92;;;1.90;;
10920;SDS011;5513;50.580;8.818;2022-09-06T10:26:44;3.00;;;1.77;;
10920;SDS011;5513;50.580;8.818;2022-09-06T10:29:21;1.90;;;1.67;;
10920;SDS011;5513;50.580;8.818;2022-09-06T10:32:00;3.92;;;1.85;;
10920;SDS011;5513;50.580;8.818;2022-09-06T10:37:42;4.13;;;1.80;;
10920;SDS011;5513;50.580;8.818;2022-09-06T10:40:17;4.65;;;1.95;;
10920;SDS011;5513;50.580;8.818;2022-09-06T10:42:55;3.45;;;1.88;;
10920;SDS011;5513;50.580;8.818;2022-09-06T10:45:30;3.30;;;1.88;;
10920;SDS011;5513;50.580;8.818;2022-09-06T10:48:07;3.38;;;1.80;;
10920;SDS011;5513;50.580;8.818;2022-09-06T10:50:45;1.88;;;1.77;;
10920;SDS011;5513;50.580;8.818;2022-09-06T10:53:25;2.50;;;1.75;;
10920;SDS011;5513;50.580;8.818;2022-09-06T10:56:02;3.80;;;2.00;;
10920;SDS011;5513;50.580;8.818;2022-09-06T10:58:36;3.55;;;1.80;;
10920;SDS011;5513;50.580;8.818;2022-09-06T11:01:36;2.55;;;1.90;;
10920;SDS011;5513;50.580;8.818;2022-09-06T11:04:21;4.47;;;1.77;;
10920;SDS011;5513;50.580;8.818;2022-09-06T11:06:55;3.28;;;1.92;;
10920;SDS011;5513;50.580;8.818;2022-09-06T11:09:31;3.50;;;1.67;;
10920;SDS011;5513;50.580;8.818;2022-09-06T11:12:06;2.83;;;1.70;;
10920;SDS011;5513;50.580;8.818;2022-09-06T11:14:41;5.22;;;1.77;;
10920;SDS011;5513;50.580;8.818;2022-09-06T11:17:12;7.35;;;1.83;;
10920;SDS011;5513;50.580;8.818;2022-09-06T11:19:49;4.78;;;1.60;;
10920;SDS011;5513;50.580;8.818;2022-09-06T11:22:32;2.22;;;1.58;;
10920;SDS011;5513;50.580;8.818;2022-09-06T11:25:23;3.35;;;1.98;;
10920;SDS011;5513;50.580;8.818;2022-09-06T11:28:22;6.45;;;1.90;;
10920;SDS011;5513;50.580;8.818;2022-09-06T11:30:59;2.72;;;1.52;;
10920;SDS011;5513;50.580;8.818;2022-09-06T11:33:32;5.75;;;1.80;;
10920;SDS011;5513;50.580;8.818;2022-09-06T11:36:18;2.78;;;1.67;;
10920;SDS011;5513;50.580;8.818;2022-09-06T11:39:02;3.15;;;1.80;;
10920;SDS011;5513;50.580;8.818;2022-09-06T11:41:34;5.63;;;1.90;;
10920;SDS011;5513;50.580;8.818;2022-09-06T11:44:08;3.38;;;1.90;;
10920;SDS011;5513;50.580;8.818;2022-09-06T11:49:38;3.53;;;1.60;;
10920;SDS011;5513;50.580;8.818;2022-09-06T11:55:23;3.55;;;1.77;;
10920;SDS011;5513;50.580;8.818;2022-09-06T11:57:58;4.05;;;1.60;;
10920;SDS011;5513;50.580;8.818;2022-09-06T12:00:28;2.55;;;1.60;;
10920;SDS011;5513;50.580;8.818;2022-09-06T12:02:58;2.80;;;1.70;;
10920;SDS011;5513;50.580;8.818;2022-09-06T12:08:43;2.80;;;1.90;;
10920;SDS011;5513;50.580;8.818;2022-09-06T12:11:23;2.00;;;1.58;;
10920;SDS011;5513;50.580;8.818;2022-09-06T12:13:57;3.00;;;1.40;;
10920;SDS011;5513;50.580;8.818;2022-09-06T12:19:39;2.20;;;1.55;;
10920;SDS011;5513;50.580;8.818;2022-09-06T12:28:25;6.97;;;1.90;;
10920;SDS011;5513;50.580;8.818;2022-09-06T12:34:07;2.30;;;1.70;;
10920;SDS011;5513;50.580;8.818;2022-09-06T12:36:50;2.67;;;1.70;;
10920;SDS011;5513;50.580;8.818;2022-09-06T12:39:22;2.63;;;1.50;;
10920;SDS011;5513;50.580;8.818;2022-09-06T12:41:53;2.60;;;1.30;;
10920;SDS011;5513;50.580;8.818;2022-09-06T12:44:26;3.83;;;1.52;;
10920;SDS011;5513;50.580;8.818;2022-09-06T12:47:01;4.78;;;1.70;;
10920;SDS011;5513;50.580;8.818;2022-09-06T12:49:33;3.92;;;1.50;;
10920;SDS011;5513;50.580;8.818;2022-09-06T12:52:07;3.97;;;1.67;;
10920;SDS011;5513;50.580;8.818;2022-09-06T12:54:42;6.40;;;1.80;;
10920;SDS011;5513;50.580;8.818;2022-09-06T12:57:22;2.33;;;1.60;;
10920;SDS011;5513;50.580;8.818;2022-09-06T12:59:53;2.42;;;1.38;;
10920;SDS011;5513;50.580;8.818;2022-09-06T13:02:25;3.88;;;1.50;;
10920;SDS011;5513;50.580;8.818;2022-09-06T13:04:59;2.95;;;2.10;;
10920;SDS011;5513;50.580;8.818;2022-09-06T13:07:32;2.60;;;1.45;;
10920;SDS011;5513;50.580;8.818;2022-09-06T13:10:05;1.58;;;1.40;;
10920;SDS011;5513;50.580;8.818;2022-09-06T13:12:37;4.05;;;1.40;;
10920;SDS011;5513;50.580;8.818;2022-09-06T13:15:10;3.05;;;1.50;;
10920;SDS011;5513;50.580;8.818;2022-09-06T13:17:45;1.95;;;1.45;;
10920;SDS011;5513;50.580;8.818;2022-09-06T13:20:21;4.93;;;1.70;;
10920;SDS011;5513;50.580;8.818;2022-09-06T13:22:52;2.03;;;1.48;;
10920;SDS011;5513;50.580;8.818;2022-09-06T13:25:32;4.40;;;1.80;;
10920;SDS011;5513;50.580;8.818;2022-09-06T13:28:01;3.30;;;1.30;;
10920;SDS011;5513;50.580;8.818;2022-09-06T13:30:32;3.85;;;1.80;;
10920;SDS011;5513;50.580;8.818;2022-09-06T13:33:19;3.38;;;1.30;;
10920;SDS011;5513;50.580;8.818;2022-09-06T13:35:51;5.72;;;1.55;;
10920;SDS011;5513;50.580;8.818;2022-09-06T13:38:42;3.20;;;1.48;;
10920;SDS011;5513;50.580;8.818;2022-09-06T13:44:26;1.70;;;1.60;;
10920;SDS011;5513;50.580;8.818;2022-09-06T13:46:56;3.15;;;1.50;;
10920;SDS011;5513;50.580;8.818;2022-09-06T13:49:29;5.30;;;1.67;;
10920;SDS011;5513;50.580;8.818;2022-09-06T13:52:00;4.40;;;1.60;;
10920;SDS011;5513;50.580;8.818;2022-09-06T13:54:29;3.90;;;1.60;;
10920;SDS011;5513;50.580;8.818;2022-09-06T13:56:59;3.90;;;1.58;;
10920;SDS011;5513;50.580;8.818;2022-09-06T13:59:30;3.30;;;1.67;;
10920;SDS011;5513;50.580;8.818;2022-09-06T14:01:59;5.97;;;1.55;;
10920;SDS011;5513;50.580;8.818;2022-09-06T14:04:29;2.17;;;1.42;;
10920;SDS011;5513;50.580;8.818;2022-09-06T14:06:58;2.88;;;1.60;;
10920;SDS011;5513;50.580;8.818;2022-09-06T14:09:27;2.38;;;1.60;;
10920;SDS011;5513;50.580;8.818;2022-09-06T14:11:55;2.75;;;1.40;;
10920;SDS011;5513;50.580;8.818;2022-09-06T14:14:23;3.35;;;1.70;;
10920;SDS011;5513;50.580;8.818;2022-09-06T14:16:53;1.90;;;1.30;;
10920;SDS011;5513;50.580;8.818;2022-09-06T14:19:22;2.30;;;1.52;;
10920;SDS011;5513;50.580;8.818;2022-09-06T14:21:51;5.95;;;1.98;;
10920;SDS011;5513;50.580;8.818;2022-09-06T14:24:19;1.83;;;1.20;;
10920;SDS011;5513;50.580;8.818;2022-09-06T14:26:49;2.78;;;1.65;;
10920;SDS011;5513;50.580;8.818;2022-09-06T14:29:17;4.82;;;1.27;;
10920;SDS011;5513;50.580;8.818;2022-09-06T14:31:46;2.85;;;1.80;;
10920;SDS011;5513;50.580;8.818;2022-09-06T14:34:17;2.25;;;1.80;;
10920;SDS011;5513;50.580;8.818;2022-09-06T14:36:47;4.55;;;2.33;;
10920;SDS011;5513;50.580;8.818;2022-09-06T14:39:16;2.33;;;1.60;;
10920;SDS011;5513;50.580;8.818;2022-09-06T14:41:46;2.92;;;1.45;;
10920;SDS011;5513;50.580;8.818;2022-09-06T14:44:15;4.68;;;1.50;;
10920;SDS011;5513;50.580;8.818;2022-09-06T14:46:43;1.95;;;1.40;;
10920;SDS011;5513;50.580;8.818;2022-09-06T14:49:14;5.60;;;1.65;;
10920;SDS011;5513;50.580;8.818;2022-09-06T14:51:45;4.40;;;1.70;;
10920;SDS011;5513;50.580;8.818;2022-09-06T14:54:14;4.32;;;1.40;;
10920;SDS011;5513;50.580;8.818;2022-09-06T14:56:42;2.28;;;1.58;;
10920;SDS011;5513;50.580;8.818;2022-09-06T14:59:11;5.47;;;1.83;;
10920;SDS011;5513;50.580;8.818;2022-09-06T15:01:41;2.33;;;1.38;;
10920;SDS011;5513;50.580;8.818;2022-09-06T15:04:10;3.35;;;1.70;;
10920;SDS011;5513;50.580;8.818;2022-09-06T15:06:39;2.55;;;1.35;;
10920;SDS011;5513;50.580;8.818;2022-09-06T15:09:14;3.03;;;1.90;;
10920;SDS011;5513;50.580;8.818;2022-09-06T15:11:43;2.15;;;1.50;;
10920;SDS011;5513;50.580;8.818;2022-09-06T15:14:25;4.55;;;2.10;;
10920;SDS011;5513;50.580;8.818;2022-09-06T15:16:55;3.10;;;1.80;;
10920;SDS011;5513;50.580;8.818;2022-09-06T15:19:26;4.63;;;1.70;;
10920;SDS011;5513;50.580;8.818;2022-09-06T15:21:55;3.35;;;1.73;;
10920;SDS011;5513;50.580;8.818;2022-09-06T15:24:29;2.22;;;1.58;;
10920;SDS011;5513;50.580;8.818;2022-09-06T15:26:57;6.47;;;2.13;;
10920;SDS011;5513;50.580;8.818;2022-09-06T15:29:27;3.63;;;1.90;;
10920;SDS011;5513;50.580;8.818;2022-09-06T15:31:55;3.17;;;2.65;;
10920;SDS011;5513;50.580;8.818;2022-09-06T15:34:24;4.35;;;1.70;;
10920;SDS011;5513;50.580;8.818;2022-09-06T15:36:53;3.95;;;1.70;;
10920;SDS011;5513;50.580;8.818;2022-09-06T15:39:22;3.10;;;1.88;;
10920;SDS011;5513;50.580;8.818;2022-09-06T15:41:53;3.83;;;1.70;;
10920;SDS011;5513;50.580;8.818;2022-09-06T15:44:22;5.40;;;1.90;;
10920;SDS011;5513;50.580;8.818;2022-09-06T15:46:53;7.65;;;1.60;;
10920;SDS011;5513;50.580;8.818;2022-09-06T15:49:23;4.35;;;2.70;;
10920;SDS011;5513;50.580;8.818;2022-09-06T15:51:54;3.28;;;1.67;;
10920;SDS011;5513;50.580;8.818;2022-09-06T15:54:23;4.75;;;2.15;;
10920;SDS011;5513;50.580;8.818;2022-09-06T15:57:08;4.65;;;1.63;;
10920;SDS011;5513;50.580;8.818;2022-09-06T15:59:42;3.13;;;1.73;;
10920;SDS011;5513;50.580;8.818;2022-09-06T16:02:11;3.70;;;1.77;;
10920;SDS011;5513;50.580;8.818;2022-09-06T16:04:40;3.55;;;1.88;;
10920;SDS011;5513;50.580;8.818;2022-09-06T16:07:09;3.72;;;1.65;;
10920;SDS011;5513;50.580;8.818;2022-09-06T16:09:40;5.38;;;1.70;;
10920;SDS011;5513;50.580;8.818;2022-09-06T16:12:11;4.88;;;1.80;;
10920;SDS011;5513;50.580;8.818;2022-09-06T16:14:39;4.85;;;1.70;;